sensor_id;sensor_type;location;lat;lon;timestamp;P1;durP1;ratioP1;P2;durP2;ratioP2
69744;SDS011;57015;50.120;-5.168;2023-06-26T00:00:14;5.13;;;0.73;;
69744;SDS011;57015;50.120;-5.168;2023-06-26T00:02:40;6.03;;;1.00;;
69744;SDS011;57015;50.120;-5.168;2023-06-26T00:05:05;4.70;;;0.73;;
69744;SDS011;57015;50.120;-5.168;2023-06-26T00:07:31;5.05;;;1.10;;
69744;SDS011;57015;50.120;-5.168;2023-06-26T00:09:59;4.72;;;0.65;;
69744;SDS011;57015;50.120;-5.168;2023-06-26T00:12:24;4.87;;;0.83;;
69744;SDS011;57015;50.120;-5.168;2023-06-26T00:14:50;2.40;;;0.60;;
69744;SDS011;57015;50.120;-5.168;2023-06-26T00:17:15;5.73;;;0.80;;
69744;SDS011;57015;50.120;-5.168;2023-06-26T00:19:41;2.70;;;0.80;;
69744;SDS011;57015;50.120;-5.168;2023-06-26T00:22:06;4.57;;;1.00;;
69744;SDS011;57015;50.120;-5.168;2023-06-26T00:24:32;3.67;;;0.83;;
69744;SDS011;57015;50.120;-5.168;2023-06-26T00:26:57;4.37;;;0.60;;
69744;SDS011;57015;50.120;-5.168;2023-06-26T00:29:23;6.30;;;1.00;;
69744;SDS011;57015;50.120;-5.168;2023-06-26T00:31:49;4.63;;;0.90;;
69744;SDS011;57015;50.120;-5.168;2023-06-26T00:34:14;6.88;;;0.70;;
69744;SDS011;57015;50.120;-5.168;2023-06-26T00:36:40;2.55;;;0.70;;
69744;SDS011;57015;50.120;-5.168;2023-06-26T00:39:08;2.78;;;0.47;;
69744;SDS011;57015;50.120;-5.168;2023-06-26T00:41:35;3.08;;;1.10;;
69744;SDS011;57015;50.120;-5.168;2023-06-26T00:44:01;4.00;;;0.60;;
69744;SDS011;57015;50.120;-5.168;2023-06-26T00:46:27;3.17;;;0.70;;
69744;SDS011;57015;50.120;-5.168;2023-06-26T00:48:52;3.50;;;0.90;;
69744;SDS011;57015;50.120;-5.168;2023-06-26T00:51:18;3.10;;;0.70;;
69744;SDS011;57015;50.120;-5.168;2023-06-26T00:53:43;4.13;;;0.70;;
69744;SDS011;57015;50.120;-5.168;2023-06-26T00:56:09;3.33;;;0.63;;
69744;SDS011;57015;50.120;-5.168;2023-06-26T00:58:34;3.27;;;0.57;;
69744;SDS011;57015;50.120;-5.168;2023-06-26T01:01:00;5.13;;;0.77;;
69744;SDS011;57015;50.120;-5.168;2023-06-26T01:03:26;4.20;;;0.55;;
69744;SDS011;57015;50.120;-5.168;2023-06-26T01:05:52;4.15;;;0.50;;
69744;SDS011;57015;50.120;-5.168;2023-06-26T01:08:18;6.32;;;0.77;;
69744;SDS011;57015;50.120;-5.168;2023-06-26T01:10:43;5.72;;;0.63;;
69744;SDS011;57015;50.120;-5.168;2023-06-26T01:13:09;4.83;;;0.80;;
69744;SDS011;57015;50.120;-5.168;2023-06-26T01:15:36;5.95;;;0.85;;
69744;SDS011;57015;50.120;-5.168;2023-06-26T01:18:02;3.63;;;0.60;;
69744;SDS011;57015;50.120;-5.168;2023-06-26T01:20:35;3.15;;;0.60;;
69744;SDS011;57015;50.120;-5.168;2023-06-26T01:28:33;3.03;;;0.47;;
69744;SDS011;57015;50.120;-5.168;2023-06-26T01:30:58;2.10;;;0.40;;
69744;SDS011;57015;50.120;-5.168;2023-06-26T01:33:24;3.22;;;0.65;;
69744;SDS011;57015;50.120;-5.168;2023-06-26T01:35:49;5.70;;;1.10;;
69744;SDS011;57015;50.120;-5.168;2023-06-26T01:38:16;2.97;;;0.43;;
69744;SDS011;57015;50.120;-5.168;2023-06-26T01:40:42;3.38;;;0.60;;
69744;SDS011;57015;50.120;-5.168;2023-06-26T01:43:12;3.45;;;0.50;;
69744;SDS011;57015;50.120;-5.168;2023-06-26T01:45:42;3.42;;;0.70;;
69744;SDS011;57015;50.120;-5.168;2023-06-26T01:48:09;5.97;;;0.87;;
69744;SDS011;57015;50.120;-5.168;2023-06-26T01:50:36;3.25;;;0.40;;
69744;SDS011;57015;50.120;-5.168;2023-06-26T01:53:12;2.97;;;0.50;;
69744;SDS011;57015;50.120;-5.168;2023-06-26T01:55:49;2.08;;;0.73;;
69744;SDS011;57015;50.120;-5.168;2023-06-26T01:58:17;5.07;;;0.90;;
69744;SDS011;57015;50.120;-5.168;2023-06-26T02:00:45;3.20;;;0.70;;
69744;SDS011;57015;50.120;-5.168;2023-06-26T02:03:11;1.88;;;0.50;;
69744;SDS011;57015;50.120;-5.168;2023-06-26T02:05:36;4.03;;;0.67;;
69744;SDS011;57015;50.120;-5.168;2023-06-26T02:08:01;3.97;;;0.50;;
69744;SDS011;57015;50.120;-5.168;2023-06-26T02:10:28;2.28;;;0.45;;
69744;SDS011;57015;50.120;-5.168;2023-06-26T02:12:53;2.37;;;0.53;;
69744;SDS011;57015;50.120;-5.168;2023-06-26T02:15:18;4.33;;;0.70;;
69744;SDS011;57015;50.120;-5.168;2023-06-26T02:17:44;4.33;;;0.77;;
69744;SDS011;57015;50.120;-5.168;2023-06-26T02:20:13;3.05;;;0.68;;
69744;SDS011;57015;50.120;-5.168;2023-06-26T02:22:38;2.08;;;0.40;;
69744;SDS011;57015;50.120;-5.168;2023-06-26T02:25:04;3.30;;;0.60;;
69744;SDS011;57015;50.120;-5.168;2023-06-26T02:27:30;5.40;;;0.80;;
69744;SDS011;57015;50.120;-5.168;2023-06-26T02:29:55;3.57;;;0.73;;
69744;SDS011;57015;50.120;-5.168;2023-06-26T02:32:21;4.07;;;0.70;;
69744;SDS011;57015;50.120;-5.168;2023-06-26T02:34:46;5.00;;;0.60;;
69744;SDS011;57015;50.120;-5.168;2023-06-26T02:37:11;3.60;;;0.73;;
69744;SDS011;57015;50.120;-5.168;2023-06-26T02:39:37;2.27;;;0.50;;
69744;SDS011;57015;50.120;-5.168;2023-06-26T02:42:02;2.95;;;0.47;;
69744;SDS011;57015;50.120;-5.168;2023-06-26T02:44:28;6.85;;;1.02;;
69744;SDS011;57015;50.120;-5.168;2023-06-26T02:46:53;4.50;;;0.90;;
69744;SDS011;57015;50.120;-5.168;2023-06-26T02:49:18;1.37;;;0.40;;
69744;SDS011;57015;50.120;-5.168;2023-06-26T02:51:44;3.17;;;0.90;;
69744;SDS011;57015;50.120;-5.168;2023-06-26T02:54:09;2.53;;;0.50;;
69744;SDS011;57015;50.120;-5.168;2023-06-26T02:56:34;3.25;;;0.63;;
69744;SDS011;57015;50.120;-5.168;2023-06-26T02:59:00;3.53;;;0.50;;
69744;SDS011;57015;50.120;-5.168;2023-06-26T03:01:25;2.47;;;0.70;;
69744;SDS011;57015;50.120;-5.168;2023-06-26T03:03:51;3.40;;;0.60;;
69744;SDS011;57015;50.120;-5.168;2023-06-26T03:06:16;5.30;;;0.83;;
69744;SDS011;57015;50.120;-5.168;2023-06-26T03:08:42;3.88;;;0.60;;
69744;SDS011;57015;50.120;-5.168;2023-06-26T03:11:08;2.67;;;0.70;;
69744;SDS011;57015;50.120;-5.168;2023-06-26T03:13:34;3.77;;;0.70;;
69744;SDS011;57015;50.120;-5.168;2023-06-26T03:16:00;2.45;;;0.65;;
69744;SDS011;57015;50.120;-5.168;2023-06-26T03:18:26;3.35;;;0.80;;
69744;SDS011;57015;50.120;-5.168;2023-06-26T03:20:52;2.93;;;0.60;;
69744;SDS011;57015;50.120;-5.168;2023-06-26T03:23:19;3.80;;;1.10;;
69744;SDS011;57015;50.120;-5.168;2023-06-26T03:25:45;2.05;;;0.40;;
69744;SDS011;57015;50.120;-5.168;2023-06-26T03:28:10;3.90;;;0.60;;
69744;SDS011;57015;50.120;-5.168;2023-06-26T03:30:35;2.97;;;0.67;;
69744;SDS011;57015;50.120;-5.168;2023-06-26T03:33:01;2.83;;;0.80;;
69744;SDS011;57015;50.120;-5.168;2023-06-26T03:35:26;2.07;;;0.50;;
69744;SDS011;57015;50.120;-5.168;2023-06-26T03:37:51;2.40;;;0.63;;
69744;SDS011;57015;50.120;-5.168;2023-06-26T03:40:17;2.65;;;0.73;;
69744;SDS011;57015;50.120;-5.168;2023-06-26T03:42:42;2.83;;;0.65;;
69744;SDS011;57015;50.120;-5.168;2023-06-26T03:45:08;2.83;;;0.67;;
69744;SDS011;57015;50.120;-5.168;2023-06-26T03:47:33;4.60;;;0.70;;
69744;SDS011;57015;50.120;-5.168;2023-06-26T03:49:58;4.93;;;0.40;;
69744;SDS011;57015;50.120;-5.168;2023-06-26T03:52:24;3.17;;;0.60;;
69744;SDS011;57015;50.120;-5.168;2023-06-26T03:54:49;6.63;;;0.70;;
69744;SDS011;57015;50.120;-5.168;2023-06-26T03:57:15;5.73;;;0.80;;
69744;SDS011;57015;50.120;-5.168;2023-06-26T03:59:40;4.00;;;0.70;;
69744;SDS011;57015;50.120;-5.168;2023-06-26T04:02:05;4.33;;;0.60;;
69744;SDS011;57015;50.120;-5.168;2023-06-26T04:04:31;3.60;;;0.63;;
69744;SDS011;57015;50.120;-5.168;2023-06-26T04:06:56;1.47;;;0.47;;
69744;SDS011;57015;50.120;-5.168;2023-06-26T04:09:24;3.38;;;0.55;;
69744;SDS011;57015;50.120;-5.168;2023-06-26T04:11:49;1.97;;;0.50;;
69744;SDS011;57015;50.120;-5.168;2023-06-26T04:14:15;3.05;;;0.60;;
69744;SDS011;57015;50.120;-5.168;2023-06-26T04:16:40;3.05;;;0.82;;
69744;SDS011;57015;50.120;-5.168;2023-06-26T04:19:05;3.03;;;0.40;;
69744;SDS011;57015;50.120;-5.168;2023-06-26T04:21:31;1.63;;;0.50;;
69744;SDS011;57015;50.120;-5.168;2023-06-26T04:23:56;5.10;;;1.10;;
69744;SDS011;57015;50.120;-5.168;2023-06-26T04:26:22;3.13;;;0.60;;
69744;SDS011;57015;50.120;-5.168;2023-06-26T04:28:47;2.60;;;0.50;;
69744;SDS011;57015;50.120;-5.168;2023-06-26T04:31:13;4.53;;;0.88;;
69744;SDS011;57015;50.120;-5.168;2023-06-26T04:33:38;2.93;;;0.53;;
69744;SDS011;57015;50.120;-5.168;2023-06-26T04:36:04;5.65;;;0.63;;
69744;SDS011;57015;50.120;-5.168;2023-06-26T04:38:31;3.28;;;0.77;;
69744;SDS011;57015;50.120;-5.168;2023-06-26T04:40:59;2.45;;;0.70;;
69744;SDS011;57015;50.120;-5.168;2023-06-26T04:43:25;5.13;;;0.70;;
69744;SDS011;57015;50.120;-5.168;2023-06-26T04:45:50;2.60;;;0.50;;
69744;SDS011;57015;50.120;-5.168;2023-06-26T04:48:16;2.95;;;0.57;;
69744;SDS011;57015;50.120;-5.168;2023-06-26T04:50:41;5.13;;;0.60;;
69744;SDS011;57015;50.120;-5.168;2023-06-26T04:53:07;5.73;;;0.60;;
69744;SDS011;57015;50.120;-5.168;2023-06-26T04:55:32;4.13;;;0.70;;
69744;SDS011;57015;50.120;-5.168;2023-06-26T04:57:58;3.57;;;0.40;;
69744;SDS011;57015;50.120;-5.168;2023-06-26T05:00:23;4.20;;;0.50;;
69744;SDS011;57015;50.120;-5.168;2023-06-26T05:02:49;2.95;;;0.63;;
69744;SDS011;57015;50.120;-5.168;2023-06-26T05:05:25;1.52;;;0.50;;
69744;SDS011;57015;50.120;-5.168;2023-06-26T05:07:53;2.45;;;0.70;;
69744;SDS011;57015;50.120;-5.168;2023-06-26T05:10:19;4.80;;;0.80;;
69744;SDS011;57015;50.120;-5.168;2023-06-26T05:12:45;2.50;;;0.90;;
69744;SDS011;57015;50.120;-5.168;2023-06-26T05:15:10;3.23;;;0.73;;
69744;SDS011;57015;50.120;-5.168;2023-06-26T05:17:35;3.07;;;0.60;;
69744;SDS011;57015;50.120;-5.168;2023-06-26T05:20:01;3.37;;;0.70;;
69744;SDS011;57015;50.120;-5.168;2023-06-26T05:22:26;5.00;;;0.70;;
69744;SDS011;57015;50.120;-5.168;2023-06-26T05:24:52;4.07;;;0.88;;
69744;SDS011;57015;50.120;-5.168;2023-06-26T05:27:20;8.03;;;1.00;;
69744;SDS011;57015;50.120;-5.168;2023-06-26T05:29:47;4.18;;;1.10;;
69744;SDS011;57015;50.120;-5.168;2023-06-26T05:32:14;3.78;;;0.60;;
69744;SDS011;57015;50.120;-5.168;2023-06-26T05:34:42;5.43;;;0.98;;
69744;SDS011;57015;50.120;-5.168;2023-06-26T05:37:10;3.00;;;0.70;;
69744;SDS011;57015;50.120;-5.168;2023-06-26T05:39:40;2.43;;;0.73;;
69744;SDS011;57015;50.120;-5.168;2023-06-26T05:42:05;3.70;;;1.75;;
69744;SDS011;57015;50.120;-5.168;2023-06-26T05:44:31;2.38;;;0.50;;
69744;SDS011;57015;50.120;-5.168;2023-06-26T05:46:57;2.38;;;0.30;;
69744;SDS011;57015;50.120;-5.168;2023-06-26T05:49:22;5.27;;;1.00;;
69744;SDS011;57015;50.120;-5.168;2023-06-26T05:51:47;3.43;;;0.73;;
69744;SDS011;57015;50.120;-5.168;2023-06-26T05:54:13;5.27;;;0.80;;
69744;SDS011;57015;50.120;-5.168;2023-06-26T05:56:39;5.63;;;0.90;;
69744;SDS011;57015;50.120;-5.168;2023-06-26T05:59:04;6.00;;;0.90;;
69744;SDS011;57015;50.120;-5.168;2023-06-26T06:01:31;2.45;;;0.82;;
69744;SDS011;57015;50.120;-5.168;2023-06-26T06:03:58;5.07;;;0.80;;
69744;SDS011;57015;50.120;-5.168;2023-06-26T06:06:23;5.67;;;1.10;;
69744;SDS011;57015;50.120;-5.168;2023-06-26T06:08:49;5.93;;;1.00;;
69744;SDS011;57015;50.120;-5.168;2023-06-26T06:11:14;3.43;;;0.50;;
69744;SDS011;57015;50.120;-5.168;2023-06-26T06:13:40;4.50;;;0.70;;
69744;SDS011;57015;50.120;-5.168;2023-06-26T06:16:05;5.13;;;0.73;;
69744;SDS011;57015;50.120;-5.168;2023-06-26T06:18:31;4.20;;;0.90;;
69744;SDS011;57015;50.120;-5.168;2023-06-26T06:20:56;4.97;;;1.00;;
69744;SDS011;57015;50.120;-5.168;2023-06-26T06:23:21;4.00;;;1.00;;
69744;SDS011;57015;50.120;-5.168;2023-06-26T06:25:47;3.33;;;0.70;;
69744;SDS011;57015;50.120;-5.168;2023-06-26T06:28:13;6.23;;;1.07;;
69744;SDS011;57015;50.120;-5.168;2023-06-26T06:30:41;4.22;;;1.00;;
69744;SDS011;57015;50.120;-5.168;2023-06-26T06:33:06;6.57;;;1.17;;
69744;SDS011;57015;50.120;-5.168;2023-06-26T06:35:31;5.43;;;1.20;;
69744;SDS011;57015;50.120;-5.168;2023-06-26T06:37:57;5.43;;;1.13;;
69744;SDS011;57015;50.120;-5.168;2023-06-26T06:40:22;6.57;;;0.93;;
69744;SDS011;57015;50.120;-5.168;2023-06-26T06:42:47;6.03;;;1.13;;
69744;SDS011;57015;50.120;-5.168;2023-06-26T06:45:13;4.60;;;0.93;;
69744;SDS011;57015;50.120;-5.168;2023-06-26T06:47:38;9.13;;;1.20;;
69744;SDS011;57015;50.120;-5.168;2023-06-26T06:50:04;6.80;;;1.08;;
69744;SDS011;57015;50.120;-5.168;2023-06-26T06:52:36;7.30;;;1.23;;
69744;SDS011;57015;50.120;-5.168;2023-06-26T06:55:03;7.75;;;1.63;;
69744;SDS011;57015;50.120;-5.168;2023-06-26T06:57:33;8.40;;;1.02;;
69744;SDS011;57015;50.120;-5.168;2023-06-26T07:00:05;9.60;;;1.65;;
69744;SDS011;57015;50.120;-5.168;2023-06-26T07:02:38;9.33;;;1.37;;
69744;SDS011;57015;50.120;-5.168;2023-06-26T07:05:04;8.48;;;0.80;;
69744;SDS011;57015;50.120;-5.168;2023-06-26T07:07:30;5.63;;;1.20;;
69744;SDS011;57015;50.120;-5.168;2023-06-26T07:09:57;4.53;;;0.75;;
69744;SDS011;57015;50.120;-5.168;2023-06-26T07:12:33;9.00;;;1.30;;
69744;SDS011;57015;50.120;-5.168;2023-06-26T07:15:00;8.55;;;1.00;;
69744;SDS011;57015;50.120;-5.168;2023-06-26T07:17:26;5.45;;;0.90;;
69744;SDS011;57015;50.120;-5.168;2023-06-26T07:19:51;9.27;;;1.50;;
69744;SDS011;57015;50.120;-5.168;2023-06-26T07:22:16;9.63;;;1.63;;
69744;SDS011;57015;50.120;-5.168;2023-06-26T07:24:44;8.77;;;1.17;;
69744;SDS011;57015;50.120;-5.168;2023-06-26T07:27:09;7.03;;;1.00;;
69744;SDS011;57015;50.120;-5.168;2023-06-26T07:29:34;9.43;;;1.07;;
69744;SDS011;57015;50.120;-5.168;2023-06-26T07:32:00;9.13;;;1.50;;
69744;SDS011;57015;50.120;-5.168;2023-06-26T07:34:25;5.87;;;1.00;;
69744;SDS011;57015;50.120;-5.168;2023-06-26T07:36:50;11.40;;;1.10;;
69744;SDS011;57015;50.120;-5.168;2023-06-26T07:39:16;7.97;;;1.10;;
69744;SDS011;57015;50.120;-5.168;2023-06-26T07:41:41;4.87;;;0.90;;
69744;SDS011;57015;50.120;-5.168;2023-06-26T07:44:06;7.50;;;1.23;;
69744;SDS011;57015;50.120;-5.168;2023-06-26T07:46:32;10.30;;;1.27;;
69744;SDS011;57015;50.120;-5.168;2023-06-26T07:48:57;8.27;;;1.10;;
69744;SDS011;57015;50.120;-5.168;2023-06-26T07:51:22;8.47;;;1.00;;
69744;SDS011;57015;50.120;-5.168;2023-06-26T07:53:49;11.15;;;0.70;;
69744;SDS011;57015;50.120;-5.168;2023-06-26T07:56:14;11.30;;;1.27;;
69744;SDS011;57015;50.120;-5.168;2023-06-26T07:58:39;6.75;;;1.02;;
69744;SDS011;57015;50.120;-5.168;2023-06-26T08:01:05;8.17;;;0.97;;
69744;SDS011;57015;50.120;-5.168;2023-06-26T08:03:30;8.87;;;0.97;;
69744;SDS011;57015;50.120;-5.168;2023-06-26T08:05:56;10.43;;;0.83;;
69744;SDS011;57015;50.120;-5.168;2023-06-26T08:08:22;8.70;;;1.60;;
69744;SDS011;57015;50.120;-5.168;2023-06-26T08:10:47;9.03;;;0.87;;
69744;SDS011;57015;50.120;-5.168;2023-06-26T08:13:13;9.77;;;1.40;;
69744;SDS011;57015;50.120;-5.168;2023-06-26T08:15:38;9.73;;;1.00;;
69744;SDS011;57015;50.120;-5.168;2023-06-26T08:18:04;13.75;;;1.63;;
69744;SDS011;57015;50.120;-5.168;2023-06-26T08:20:29;9.93;;;1.30;;
69744;SDS011;57015;50.120;-5.168;2023-06-26T08:22:55;9.60;;;1.13;;
69744;SDS011;57015;50.120;-5.168;2023-06-26T08:25:20;6.30;;;1.10;;
69744;SDS011;57015;50.120;-5.168;2023-06-26T08:27:45;10.30;;;1.45;;
69744;SDS011;57015;50.120;-5.168;2023-06-26T08:30:11;11.60;;;1.97;;
69744;SDS011;57015;50.120;-5.168;2023-06-26T08:32:36;8.73;;;1.10;;
69744;SDS011;57015;50.120;-5.168;2023-06-26T08:35:02;5.43;;;0.77;;
69744;SDS011;57015;50.120;-5.168;2023-06-26T08:37:27;8.02;;;1.13;;
69744;SDS011;57015;50.120;-5.168;2023-06-26T08:39:53;12.70;;;1.83;;
69744;SDS011;57015;50.120;-5.168;2023-06-26T08:42:18;7.30;;;1.47;;
69744;SDS011;57015;50.120;-5.168;2023-06-26T08:44:44;8.03;;;1.20;;
69744;SDS011;57015;50.120;-5.168;2023-06-26T08:47:10;7.83;;;1.20;;
69744;SDS011;57015;50.120;-5.168;2023-06-26T08:49:42;6.03;;;1.20;;
69744;SDS011;57015;50.120;-5.168;2023-06-26T08:52:13;10.25;;;1.38;;
69744;SDS011;57015;50.120;-5.168;2023-06-26T08:54:52;12.18;;;1.95;;
69744;SDS011;57015;50.120;-5.168;2023-06-26T08:57:22;6.10;;;1.30;;
69744;SDS011;57015;50.120;-5.168;2023-06-26T08:59:48;10.00;;;1.13;;
69744;SDS011;57015;50.120;-5.168;2023-06-26T09:02:13;6.95;;;1.38;;
69744;SDS011;57015;50.120;-5.168;2023-06-26T09:04:39;10.97;;;1.63;;
69744;SDS011;57015;50.120;-5.168;2023-06-26T09:07:05;9.30;;;1.83;;
69744;SDS011;57015;50.120;-5.168;2023-06-26T09:09:30;9.27;;;1.30;;
69744;SDS011;57015;50.120;-5.168;2023-06-26T09:11:56;11.40;;;1.40;;
69744;SDS011;57015;50.120;-5.168;2023-06-26T09:14:21;10.90;;;1.83;;
69744;SDS011;57015;50.120;-5.168;2023-06-26T09:16:47;6.78;;;1.23;;
69744;SDS011;57015;50.120;-5.168;2023-06-26T09:19:13;9.43;;;1.35;;
69744;SDS011;57015;50.120;-5.168;2023-06-26T09:21:40;8.07;;;1.37;;
69744;SDS011;57015;50.120;-5.168;2023-06-26T09:24:06;5.70;;;1.05;;
69744;SDS011;57015;50.120;-5.168;2023-06-26T09:26:33;7.28;;;1.30;;
69744;SDS011;57015;50.120;-5.168;2023-06-26T09:29:02;12.07;;;1.30;;
69744;SDS011;57015;50.120;-5.168;2023-06-26T09:31:28;7.25;;;1.45;;
69744;SDS011;57015;50.120;-5.168;2023-06-26T09:34:03;8.60;;;1.00;;
69744;SDS011;57015;50.120;-5.168;2023-06-26T09:36:29;8.20;;;1.05;;
69744;SDS011;57015;50.120;-5.168;2023-06-26T09:39:00;7.57;;;1.30;;
69744;SDS011;57015;50.120;-5.168;2023-06-26T09:41:26;9.00;;;1.60;;
69744;SDS011;57015;50.120;-5.168;2023-06-26T09:43:52;7.57;;;1.27;;
69744;SDS011;57015;50.120;-5.168;2023-06-26T09:46:24;8.40;;;1.73;;
69744;SDS011;57015;50.120;-5.168;2023-06-26T09:51:24;6.28;;;1.63;;
69744;SDS011;57015;50.120;-5.168;2023-06-26T09:53:49;9.40;;;1.23;;
69744;SDS011;57015;50.120;-5.168;2023-06-26T09:56:15;6.43;;;1.27;;
69744;SDS011;57015;50.120;-5.168;2023-06-26T09:58:44;7.45;;;1.50;;
69744;SDS011;57015;50.120;-5.168;2023-06-26T10:01:10;6.23;;;0.83;;
69744;SDS011;57015;50.120;-5.168;2023-06-26T10:03:35;8.43;;;1.10;;
69744;SDS011;57015;50.120;-5.168;2023-06-26T10:06:00;7.43;;;1.10;;
69744;SDS011;57015;50.120;-5.168;2023-06-26T10:08:27;7.30;;;1.20;;
69744;SDS011;57015;50.120;-5.168;2023-06-26T10:10:53;9.25;;;1.40;;
69744;SDS011;57015;50.120;-5.168;2023-06-26T10:13:21;10.43;;;1.17;;
69744;SDS011;57015;50.120;-5.168;2023-06-26T10:15:47;8.50;;;1.37;;
69744;SDS011;57015;50.120;-5.168;2023-06-26T10:18:13;9.43;;;1.83;;
69744;SDS011;57015;50.120;-5.168;2023-06-26T10:20:40;9.48;;;1.50;;
69744;SDS011;57015;50.120;-5.168;2023-06-26T10:23:07;7.72;;;1.60;;
69744;SDS011;57015;50.120;-5.168;2023-06-26T10:25:34;8.82;;;1.45;;
69744;SDS011;57015;50.120;-5.168;2023-06-26T10:28:03;8.57;;;1.80;;
69744;SDS011;57015;50.120;-5.168;2023-06-26T10:30:31;8.10;;;0.88;;
69744;SDS011;57015;50.120;-5.168;2023-06-26T10:32:59;11.75;;;1.20;;
69744;SDS011;57015;50.120;-5.168;2023-06-26T10:35:25;6.65;;;1.20;;
69744;SDS011;57015;50.120;-5.168;2023-06-26T10:37:51;5.53;;;1.10;;
69744;SDS011;57015;50.120;-5.168;2023-06-26T10:40:26;7.32;;;1.40;;
69744;SDS011;57015;50.120;-5.168;2023-06-26T10:43:06;6.80;;;1.20;;
69744;SDS011;57015;50.120;-5.168;2023-06-26T10:45:35;9.67;;;1.53;;
69744;SDS011;57015;50.120;-5.168;2023-06-26T10:48:01;5.88;;;1.25;;
69744;SDS011;57015;50.120;-5.168;2023-06-26T10:50:28;12.35;;;2.03;;
69744;SDS011;57015;50.120;-5.168;2023-06-26T10:53:07;8.95;;;1.55;;
69744;SDS011;57015;50.120;-5.168;2023-06-26T10:55:34;11.13;;;2.05;;
69744;SDS011;57015;50.120;-5.168;2023-06-26T10:58:00;9.67;;;1.80;;
69744;SDS011;57015;50.120;-5.168;2023-06-26T11:00:27;9.85;;;1.75;;
69744;SDS011;57015;50.120;-5.168;2023-06-26T11:02:52;8.73;;;1.20;;
69744;SDS011;57015;50.120;-5.168;2023-06-26T11:05:28;10.55;;;1.85;;
69744;SDS011;57015;50.120;-5.168;2023-06-26T11:08:04;7.07;;;1.70;;
69744;SDS011;57015;50.120;-5.168;2023-06-26T11:10:47;13.07;;;1.50;;
69744;SDS011;57015;50.120;-5.168;2023-06-26T11:13:14;6.18;;;1.50;;
69744;SDS011;57015;50.120;-5.168;2023-06-26T11:15:39;9.52;;;1.90;;
69744;SDS011;57015;50.120;-5.168;2023-06-26T11:18:08;9.13;;;1.63;;
69744;SDS011;57015;50.120;-5.168;2023-06-26T11:20:33;5.95;;;1.40;;
69744;SDS011;57015;50.120;-5.168;2023-06-26T11:22:58;8.33;;;1.20;;
69744;SDS011;57015;50.120;-5.168;2023-06-26T11:25:24;8.50;;;1.53;;
69744;SDS011;57015;50.120;-5.168;2023-06-26T11:27:49;9.00;;;1.57;;
69744;SDS011;57015;50.120;-5.168;2023-06-26T11:30:24;5.70;;;1.63;;
69744;SDS011;57015;50.120;-5.168;2023-06-26T11:32:50;7.05;;;1.20;;
69744;SDS011;57015;50.120;-5.168;2023-06-26T11:35:25;6.00;;;1.37;;
69744;SDS011;57015;50.120;-5.168;2023-06-26T11:37:57;7.75;;;1.63;;
69744;SDS011;57015;50.120;-5.168;2023-06-26T11:40:29;4.23;;;0.80;;
69744;SDS011;57015;50.120;-5.168;2023-06-26T11:42:59;9.57;;;1.35;;
69744;SDS011;57015;50.120;-5.168;2023-06-26T11:45:32;7.53;;;1.60;;
69744;SDS011;57015;50.120;-5.168;2023-06-26T11:47:58;8.18;;;1.88;;
69744;SDS011;57015;50.120;-5.168;2023-06-26T11:50:24;8.88;;;1.65;;
69744;SDS011;57015;50.120;-5.168;2023-06-26T11:52:56;8.50;;;1.10;;
69744;SDS011;57015;50.120;-5.168;2023-06-26T11:55:26;8.73;;;1.70;;
69744;SDS011;57015;50.120;-5.168;2023-06-26T11:57:55;5.72;;;1.70;;
69744;SDS011;57015;50.120;-5.168;2023-06-26T12:00:21;6.10;;;1.20;;
69744;SDS011;57015;50.120;-5.168;2023-06-26T12:02:47;10.17;;;1.10;;
69744;SDS011;57015;50.120;-5.168;2023-06-26T12:05:13;7.00;;;1.67;;
69744;SDS011;57015;50.120;-5.168;2023-06-26T12:07:39;7.90;;;1.20;;
69744;SDS011;57015;50.120;-5.168;2023-06-26T12:10:06;11.02;;;1.30;;
69744;SDS011;57015;50.120;-5.168;2023-06-26T12:12:32;9.40;;;1.48;;
69744;SDS011;57015;50.120;-5.168;2023-06-26T12:14:58;4.23;;;1.27;;
69744;SDS011;57015;50.120;-5.168;2023-06-26T12:17:25;6.93;;;1.42;;
69744;SDS011;57015;50.120;-5.168;2023-06-26T12:19:50;5.50;;;1.60;;
69744;SDS011;57015;50.120;-5.168;2023-06-26T12:22:16;6.80;;;1.37;;
69744;SDS011;57015;50.120;-5.168;2023-06-26T12:24:42;6.70;;;1.27;;
69744;SDS011;57015;50.120;-5.168;2023-06-26T12:27:09;12.38;;;1.30;;
69744;SDS011;57015;50.120;-5.168;2023-06-26T12:29:36;8.18;;;1.63;;
69744;SDS011;57015;50.120;-5.168;2023-06-26T12:32:02;11.25;;;1.40;;
69744;SDS011;57015;50.120;-5.168;2023-06-26T12:34:31;11.83;;;1.90;;
69744;SDS011;57015;50.120;-5.168;2023-06-26T12:37:01;11.13;;;1.50;;
69744;SDS011;57015;50.120;-5.168;2023-06-26T12:39:28;7.50;;;1.30;;
69744;SDS011;57015;50.120;-5.168;2023-06-26T12:41:55;6.70;;;1.45;;
69744;SDS011;57015;50.120;-5.168;2023-06-26T12:44:25;8.57;;;1.50;;
69744;SDS011;57015;50.120;-5.168;2023-06-26T12:46:55;7.85;;;1.50;;
69744;SDS011;57015;50.120;-5.168;2023-06-26T12:49:31;8.73;;;2.10;;
69744;SDS011;57015;50.120;-5.168;2023-06-26T12:52:00;8.65;;;1.40;;
69744;SDS011;57015;50.120;-5.168;2023-06-26T12:54:26;7.45;;;1.17;;
69744;SDS011;57015;50.120;-5.168;2023-06-26T12:56:52;7.18;;;1.20;;
69744;SDS011;57015;50.120;-5.168;2023-06-26T12:59:18;6.03;;;1.00;;
69744;SDS011;57015;50.120;-5.168;2023-06-26T13:01:43;6.00;;;1.50;;
69744;SDS011;57015;50.120;-5.168;2023-06-26T13:04:09;4.47;;;1.40;;
69744;SDS011;57015;50.120;-5.168;2023-06-26T13:06:35;5.00;;;1.02;;
69744;SDS011;57015;50.120;-5.168;2023-06-26T13:09:01;6.65;;;1.50;;
69744;SDS011;57015;50.120;-5.168;2023-06-26T13:11:32;5.10;;;1.00;;
69744;SDS011;57015;50.120;-5.168;2023-06-26T13:13:58;8.23;;;1.08;;
69744;SDS011;57015;50.120;-5.168;2023-06-26T13:16:24;3.83;;;1.10;;
69744;SDS011;57015;50.120;-5.168;2023-06-26T13:18:49;5.97;;;1.23;;
69744;SDS011;57015;50.120;-5.168;2023-06-26T13:21:14;5.93;;;1.42;;
69744;SDS011;57015;50.120;-5.168;2023-06-26T13:23:41;7.47;;;1.53;;
69744;SDS011;57015;50.120;-5.168;2023-06-26T13:26:06;4.45;;;1.27;;
69744;SDS011;57015;50.120;-5.168;2023-06-26T13:28:32;6.03;;;1.33;;
69744;SDS011;57015;50.120;-5.168;2023-06-26T13:30:57;5.93;;;1.10;;
69744;SDS011;57015;50.120;-5.168;2023-06-26T13:33:23;8.10;;;1.13;;
69744;SDS011;57015;50.120;-5.168;2023-06-26T13:35:51;6.00;;;1.10;;
69744;SDS011;57015;50.120;-5.168;2023-06-26T13:38:17;7.07;;;1.55;;
69744;SDS011;57015;50.120;-5.168;2023-06-26T13:40:44;5.10;;;1.30;;
69744;SDS011;57015;50.120;-5.168;2023-06-26T13:43:09;7.60;;;1.40;;
69744;SDS011;57015;50.120;-5.168;2023-06-26T13:45:34;8.97;;;1.37;;
69744;SDS011;57015;50.120;-5.168;2023-06-26T13:48:00;8.93;;;1.70;;
69744;SDS011;57015;50.120;-5.168;2023-06-26T13:50:25;7.90;;;1.37;;
69744;SDS011;57015;50.120;-5.168;2023-06-26T13:52:50;7.47;;;1.10;;
69744;SDS011;57015;50.120;-5.168;2023-06-26T13:55:16;7.90;;;1.70;;
69744;SDS011;57015;50.120;-5.168;2023-06-26T13:57:42;9.63;;;1.70;;
69744;SDS011;57015;50.120;-5.168;2023-06-26T14:00:08;6.30;;;1.00;;
69744;SDS011;57015;50.120;-5.168;2023-06-26T14:02:34;4.85;;;1.30;;
69744;SDS011;57015;50.120;-5.168;2023-06-26T14:05:00;10.73;;;2.00;;
69744;SDS011;57015;50.120;-5.168;2023-06-26T14:07:25;7.63;;;1.60;;
69744;SDS011;57015;50.120;-5.168;2023-06-26T14:09:51;8.27;;;1.25;;
69744;SDS011;57015;50.120;-5.168;2023-06-26T14:12:16;7.95;;;1.70;;
69744;SDS011;57015;50.120;-5.168;2023-06-26T14:14:41;8.13;;;1.77;;
69744;SDS011;57015;50.120;-5.168;2023-06-26T14:17:07;8.17;;;1.67;;
69744;SDS011;57015;50.120;-5.168;2023-06-26T14:19:34;11.38;;;1.75;;
69744;SDS011;57015;50.120;-5.168;2023-06-26T14:21:59;11.10;;;1.60;;
69744;SDS011;57015;50.120;-5.168;2023-06-26T14:24:26;8.27;;;1.60;;
69744;SDS011;57015;50.120;-5.168;2023-06-26T14:26:51;9.00;;;1.80;;
69744;SDS011;57015;50.120;-5.168;2023-06-26T14:29:17;9.33;;;1.87;;
69744;SDS011;57015;50.120;-5.168;2023-06-26T14:31:42;6.93;;;1.57;;
69744;SDS011;57015;50.120;-5.168;2023-06-26T14:34:08;7.45;;;1.45;;
69744;SDS011;57015;50.120;-5.168;2023-06-26T14:36:34;10.10;;;2.00;;